Terminal Aerodrome Forecast
Issued by NWS Twin Cities, MN

Home | Current Version | Previous Version | Graphics & Text | Print | Product List | Glossary On
Versions: 1 2 3 4 5 6 7 8 9 10 11 12 13
000
FTUS43 KMPX 202300
TAFEAU
TAF
KEAU 202330Z 2100/2124 19010G16KT P6SM SCT050 BKN100
     FM210300 18007KT P6SM SCT200
      TEMPO 2109/2112 4SM BR FEW010
     FM211400 18010G16KT P6SM FEW080 SCT150=

USA.gov is the U.S. government's official web portal to all federal, state and local government web resources and services.